Time;durP1;ratioP1;P1;durP2;ratioP2;P2;SDS_P1;SDS_P2;PMS_P1;PMS_P2;Temp;Humidity;BMP_temperature;BMP_pressure;BME280_temperature;BME280_humidity;BME280_pressure;Samples;Min_cycle;Max_cycle;Signal;HPM_P1;HPM_P2
2022/06/09 05:23:05;;;;;;;;;;;;;;;16.59;89.30;96870.16;4208163;27;10458;-64
2022/06/09 05:25:09;;;;;;;;;;;;;;;16.88;88.55;96873.84;4213282;28;5758;-64
2022/06/09 05:27:14;;;;;;;;;;;;;;;17.12;87.94;96876.53;4211809;28;5803;-63
2022/06/09 05:29:17;;;;;;;;;;;;;;;17.27;87.58;96868.84;4213020;28;6956;-63
2022/06/09 05:31:20;;;;;;;;;;;;;;;17.42;87.17;96868.34;4214267;28;5679;-64
2022/06/09 05:33:24;;;;;;;;;;;;;;;17.55;86.92;96870.75;4215509;28;5699;-64
2022/06/09 05:35:27;;;;;;;;;;;;;;;17.64;86.70;96874.69;4214785;28;5695;-64
2022/06/09 05:44:50;;;;;;;;;;;;;;;17.73;86.45;96875.19;4215068;28;5715;-64
2022/06/09 05:44:54;;;;;;;;;;;;;;;17.94;85.94;96885.25;4162595;28;5508;-64
2022/06/09 05:46:59;;;;;;;;;;;;;;;17.97;85.82;96883.97;4163156;28;5778;-64
2022/06/09 05:49:03;;;;;;;;;;;;;;;18.00;85.79;96888.81;4162873;28;5785;-64
2022/06/09 05:51:06;;;;;;;;;;;;;;;18.01;85.57;96883.25;4162773;28;5893;-64
2022/06/09 05:53:09;;;;;;;;;;;;;;;18.04;85.54;96880.09;4162897;28;5790;-64
2022/06/09 05:55:14;;;;;;;;;;;;;;;18.08;85.51;96887.63;4161360;28;5782;-64
2022/06/09 05:57:18;;;;;;;;;;;;;;;18.06;85.50;96890.56;4162464;28;5857;-64
2022/06/09 05:59:21;;;;;;;;;;;;;;;18.05;85.42;96896.97;4159812;28;5869;-64
2022/06/09 06:01:24;;;;;;;;;;;;;;;18.12;85.59;96902.16;4161015;28;5901;-64
2022/06/09 06:03:28;;;;;;;;;;;;;;;18.09;85.38;96903.44;4162338;28;5886;-64
2022/06/09 06:07:51;;;;;;;;;;;;;;;18.15;85.28;96917.75;4162576;28;5834;-65
2022/06/09 06:09:54;;;;;;;;;;;;;;;18.19;84.99;96924.25;4162036;28;5782;-65
2022/06/09 06:11:59;;;;;;;;;;;;;;;18.23;84.99;96930.75;4144210;28;6014;-64
2022/06/09 06:14:09;;;;;;;;;;;;;;;18.25;84.82;96934.00;4158804;28;5858;-64
2022/06/09 06:16:13;;;;;;;;;;;;;;;18.27;84.79;96929.22;4147530;28;5841;-64
2022/06/09 06:18:35;;;;;;;;;;;;;;;18.28;84.84;96929.00;4146146;28;5822;-64
2022/06/09 06:20:38;;;;;;;;;;;;;;;18.27;84.76;96937.25;4166494;28;5787;-65
2022/06/09 06:22:41;;;;;;;;;;;;;;;18.21;85.02;96933.66;4209155;28;5702;-64
2022/06/09 06:24:44;;;;;;;;;;;;;;;18.17;84.97;96931.69;4202999;28;5686;-64
2022/06/09 06:26:48;;;;;;;;;;;;;;;18.19;85.04;96926.91;4202817;28;5789;-64
2022/06/09 06:28:52;;;;;;;;;;;;;;;18.18;84.73;96925.28;4202375;28;5686;-64
2022/06/09 06:30:55;;;;;;;;;;;;;;;18.12;84.77;96932.44;4202622;28;5820;-64
2022/06/09 06:32:58;;;;;;;;;;;;;;;18.14;84.67;96927.66;4201855;28;5707;-64
2022/06/09 06:35:01;;;;;;;;;;;;;;;18.16;84.56;96930.09;4202811;28;5731;-64
2022/06/09 06:37:05;;;;;;;;;;;;;;;18.16;84.63;96928.22;4202738;28;5722;-64
2022/06/09 06:39:08;;;;;;;;;;;;;;;18.23;84.60;96926.22;4203002;28;5785;-64
2022/06/09 06:41:12;;;;;;;;;;;;;;;18.30;84.63;96926.06;4202586;28;5711;-65
2022/06/09 06:43:18;;;;;;;;;;;;;;;18.37;84.33;96932.09;4202677;28;5725;-64
2022/06/09 06:45:23;;;;;;;;;;;;;;;18.44;84.18;96938.09;4202714;28;5702;-65
2022/06/09 06:47:27;;;;;;;;;;;;;;;18.49;84.23;96935.53;4202197;28;5687;-64
2022/06/09 06:49:30;;;;;;;;;;;;;;;18.57;84.36;96940.53;4202893;28;5698;-65
2022/06/09 06:51:33;;;;;;;;;;;;;;;18.63;84.17;96934.19;4202431;28;5783;-64
2022/06/09 06:53:38;;;;;;;;;;;;;;;18.65;84.04;96928.63;4202519;28;5679;-65
2022/06/09 06:55:42;;;;;;;;;;;;;;;18.66;84.31;96942.81;4202925;28;5090;-64
2022/06/09 06:57:46;;;;;;;;;;;;;;;18.70;83.98;96938.63;4202253;28;5835;-65
2022/06/09 06:59:49;;;;;;;;;;;;;;;18.73;84.33;96936.25;4202408;28;5722;-65
2022/06/09 07:01:53;;;;;;;;;;;;;;;18.78;84.10;96941.69;4202234;28;5764;-64
2022/06/09 07:03:57;;;;;;;;;;;;;;;18.83;84.01;96941.00;4202549;28;5703;-65
2022/06/09 07:06:00;;;;;;;;;;;;;;;18.86;84.06;96941.31;4202623;28;5710;-64
2022/06/09 07:08:04;;;;;;;;;;;;;;;18.94;83.89;96936.63;4202428;28;5686;-65
2022/06/09 07:10:09;;;;;;;;;;;;;;;19.00;83.94;96938.31;4202350;28;5674;-65
2022/06/09 07:12:12;;;;;;;;;;;;;;;19.03;83.74;96935.97;4200318;28;5854;-64
2022/06/09 07:14:15;;;;;;;;;;;;;;;19.07;83.79;96938.97;4185454;28;5706;-65
2022/06/09 07:16:19;;;;;;;;;;;;;;;19.11;83.43;96927.50;4185476;28;5781;-64
2022/06/09 07:18:43;;;;;;;;;;;;;;;19.18;83.64;96936.22;4185959;28;5773;-65
2022/06/09 07:20:46;;;;;;;;;;;;;;;19.26;83.65;96936.88;4185677;28;5694;-65
2022/06/09 07:22:49;;;;;;;;;;;;;;;19.28;83.42;96938.25;4185016;28;5678;-65
2022/06/09 07:24:55;;;;;;;;;;;;;;;19.29;83.44;96936.38;4185586;28;5824;-65
2022/06/09 07:26:59;;;;;;;;;;;;;;;19.33;83.21;96934.81;4185720;28;6454;-65
2022/06/09 07:29:02;;;;;;;;;;;;;;;19.35;83.21;96932.69;4184028;28;5662;-64
2022/06/09 07:31:06;;;;;;;;;;;;;;;19.41;83.00;96935.22;4185312;28;5732;-64
2022/06/09 07:33:09;;;;;;;;;;;;;;;19.43;83.05;96935.78;4185097;28;5724;-64
2022/06/09 07:35:17;;;;;;;;;;;;;;;19.49;82.88;96940.19;4184101;28;5812;-65
2022/06/09 07:37:20;;;;;;;;;;;;;;;19.46;82.83;96942.50;4185468;28;5715;-65
2022/06/09 07:39:24;;;;;;;;;;;;;;;19.46;82.90;96942.50;4185337;28;5721;-65
2022/06/09 07:41:27;;;;;;;;;;;;;;;19.46;82.94;96942.50;4183640;28;5658;-65
2022/06/09 07:43:33;;;;;;;;;;;;;;;19.46;83.13;96950.56;4184855;28;5740;-65
2022/06/09 07:45:41;;;;;;;;;;;;;;;19.48;83.03;96948.47;4185131;28;5716;-65
2022/06/09 07:47:44;;;;;;;;;;;;;;;19.49;82.86;96944.72;4183511;28;5563;-64
2022/06/09 07:49:49;;;;;;;;;;;;;;;19.46;82.55;96954.06;4185213;28;5775;-65
2022/06/09 07:51:54;;;;;;;;;;;;;;;19.45;82.81;96949.75;4185200;28;5802;-64
2022/06/09 07:53:58;;;;;;;;;;;;;;;19.44;82.56;96956.16;4184999;28;5674;-65
2022/06/09 07:56:01;;;;;;;;;;;;;;;19.45;82.57;96970.38;4185046;28;6249;-65
2022/06/09 07:58:05;;;;;;;;;;;;;;;19.42;82.35;96966.34;4184601;28;5757;-65
2022/06/09 08:00:12;;;;;;;;;;;;;;;19.44;82.14;96971.44;4184757;28;5690;-64
2022/06/09 08:02:16;;;;;;;;;;;;;;;19.44;82.37;96974.94;4184939;28;5667;-65
2022/06/09 08:04:19;;;;;;;;;;;;;;;19.42;82.11;96971.69;4185166;28;5686;-65
2022/06/09 08:06:23;;;;;;;;;;;;;;;19.40;82.37;96973.00;4184739;28;5820;-64
2022/06/09 08:08:30;;;;;;;;;;;;;;;19.39;82.20;96982.09;4184935;28;5675;-64
2022/06/09 08:10:33;;;;;;;;;;;;;;;19.38;82.14;96983.97;4184691;28;5083;-64
2022/06/09 08:12:36;;;;;;;;;;;;;;;19.42;81.88;96990.47;4183862;28;5853;-65
2022/06/09 08:14:39;;;;;;;;;;;;;;;19.45;81.85;96989.16;4193056;28;5710;-65
2022/06/09 08:16:43;;;;;;;;;;;;;;;19.47;81.75;96989.72;4183124;28;5630;-64
2022/06/09 08:18:46;;;;;;;;;;;;;;;19.49;81.77;96982.25;4184737;28;5757;-64
2022/06/09 08:20:50;;;;;;;;;;;;;;;19.49;81.59;96987.63;4184673;28;5094;-64
2022/06/09 08:23:12;;;;;;;;;;;;;;;19.54;81.41;96986.88;4184542;28;5663;-64
2022/06/09 08:25:21;;;;;;;;;;;;;;;19.57;81.37;96981.84;4184750;28;5682;-64
2022/06/09 08:27:24;;;;;;;;;;;;;;;19.56;81.33;96982.91;4184592;28;5816;-64
2022/06/09 08:29:28;;;;;;;;;;;;;;;19.54;81.32;96987.69;4184731;28;5686;-65
2022/06/09 08:31:31;;;;;;;;;;;;;;;19.58;81.26;96994.22;4184563;28;5793;-65
2022/06/09 08:33:35;;;;;;;;;;;;;;;19.60;81.10;96983.25;4183096;28;6252;-65
2022/06/09 08:35:38;;;;;;;;;;;;;;;19.61;81.36;96984.88;4184802;28;5777;-64
2022/06/09 08:37:41;;;;;;;;;;;;;;;19.66;81.16;96982.25;4184241;28;6371;-64
2022/06/09 08:39:44;;;;;;;;;;;;;;;19.70;80.75;96984.19;4184266;28;5106;-64
2022/06/09 08:41:59;;;;;;;;;;;;;;;19.76;80.82;96982.41;4184079;28;5761;-65
2022/06/09 08:44:11;;;;;;;;;;;;;;;19.78;80.49;96982.97;4183970;28;5674;-64
2022/06/09 08:46:25;;;;;;;;;;;;;;;19.80;80.27;96982.72;4183832;28;5695;-64
2022/06/09 08:48:38;;;;;;;;;;;;;;;19.82;80.34;96981.44;4184255;28;5714;-65
2022/06/09 08:50:47;;;;;;;;;;;;;;;19.85;80.20;96980.94;4183767;28;5710;-64
2022/06/09 08:52:53;;;;;;;;;;;;;;;19.83;80.07;96977.69;4184471;28;5793;-64
2022/06/09 08:54:58;;;;;;;;;;;;;;;19.82;80.06;96975.22;4182924;28;5558;-65
2022/06/09 08:57:16;;;;;;;;;;;;;;;19.74;79.66;96985.34;4184229;28;5800;-66
2022/06/09 08:59:25;;;;;;;;;;;;;;;19.66;79.60;96983.06;4182854;28;5575;-65
2022/06/09 09:01:35;;;;;;;;;;;;;;;19.65;79.80;96986.81;4184394;28;5774;-65
2022/06/09 09:03:47;;;;;;;;;;;;;;;19.69;79.42;96982.56;4184210;28;5698;-65
2022/06/09 09:05:57;;;;;;;;;;;;;;;19.73;79.56;96983.72;4183952;28;5683;-64
2022/06/09 09:08:02;;;;;;;;;;;;;;;19.72;79.24;96990.16;4184125;28;5683;-64
2022/06/09 09:10:17;;;;;;;;;;;;;;;19.71;79.13;96999.25;4183784;28;5802;-65
2022/06/09 09:12:31;;;;;;;;;;;;;;;19.71;79.18;97006.50;4183797;28;5686;-65
2022/06/09 09:14:40;;;;;;;;;;;;;;;19.68;78.44;97007.78;4185595;28;6236;-64
2022/06/09 09:16:53;;;;;;;;;;;;;;;19.70;78.55;97005.66;4200469;28;5074;-65
2022/06/09 09:19:08;;;;;;;;;;;;;;;19.81;78.32;97019.22;4200270;28;5805;-64
2022/06/09 09:21:22;;;;;;;;;;;;;;;19.71;78.40;97018.03;4200126;28;5793;-64
2022/06/09 09:23:32;;;;;;;;;;;;;;;19.75;78.04;97026.38;4200601;28;5780;-64
2022/06/09 09:25:44;;;;;;;;;;;;;;;19.80;78.03;97026.44;4200583;28;5812;-65
2022/06/09 09:27:58;;;;;;;;;;;;;;;19.83;77.94;97030.53;4200503;28;5687;-65
2022/06/09 09:30:11;;;;;;;;;;;;;;;19.85;77.93;97031.91;4194236;28;5678;-65
2022/06/09 09:32:19;;;;;;;;;;;;;;;19.81;77.46;97035.31;4184019;28;6785;-66
2022/06/09 09:34:24;;;;;;;;;;;;;;;19.61;76.97;97047.38;4184065;28;5690;-65
2022/06/09 09:36:30;;;;;;;;;;;;;;;19.47;77.38;97038.78;4184132;28;6336;-64
2022/06/09 09:38:39;;;;;;;;;;;;;;;19.54;77.19;97041.31;4182500;28;5642;-64
2022/06/09 09:40:46;;;;;;;;;;;;;;;19.59;77.26;97046.78;4183485;28;5737;-64
2022/06/09 09:42:52;;;;;;;;;;;;;;;19.63;76.62;97050.63;4183795;28;7120;-64
2022/06/09 09:45:14;;;;;;;;;;;;;;;19.63;76.34;97047.94;4184104;28;5691;-64
2022/06/09 09:47:26;;;;;;;;;;;;;;;19.56;76.17;97058.00;4190468;28;5723;-64
2022/06/09 09:49:32;;;;;;;;;;;;;;;19.51;76.31;97071.31;4200418;28;5738;-65
2022/06/09 09:51:38;;;;;;;;;;;;;;;19.35;76.05;97072.91;4200228;28;5785;-64
2022/06/09 09:53:54;;;;;;;;;;;;;;;19.39;76.43;97076.75;4200256;28;6392;-64
2022/06/09 09:55:59;;;;;;;;;;;;;;;19.38;76.10;97082.34;4200420;28;5710;-64
2022/06/09 09:58:24;;;;;;;;;;;;;;;19.39;75.88;97090.16;4200932;28;5707;-64
2022/06/09 10:00:29;;;;;;;;;;;;;;;19.46;75.62;97090.78;4202070;28;5632;-64
2022/06/09 10:10:10;;;;;;;;;;;;;;;19.36;74.68;97087.13;4203397;28;5776;-64
2022/06/09 10:12:34;;;;;;;;;;;;;;;19.38;74.42;97093.06;4199526;28;5924;-64
2022/06/09 10:14:49;;;;;;;;;;;;;;;19.45;74.34;97085.66;4192004;28;5749;-64
2022/06/09 10:16:54;;;;;;;;;;;;;;;19.47;73.91;97087.03;4203145;28;5051;-64
2022/06/09 10:19:20;;;;;;;;;;;;;;;19.51;73.97;97084.72;4203001;28;5694;-65
2022/06/09 10:21:53;;;;;;;;;;;;;;;19.41;73.66;97085.34;4202576;28;5796;-64
2022/06/09 10:24:18;;;;;;;;;;;;;;;19.41;73.46;97089.91;4203238;28;5682;-66
2022/06/09 10:26:42;;;;;;;;;;;;;;;19.43;73.30;97093.16;4203223;28;5686;-65
2022/06/09 10:28:51;;;;;;;;;;;;;;;19.45;73.21;97099.06;4202549;28;5761;-64
2022/06/09 10:31:02;;;;;;;;;;;;;;;19.48;72.89;97095.94;4202715;28;5773;-65
2022/06/09 10:33:16;;;;;;;;;;;;;;;19.58;72.76;97101.47;4201663;28;5659;-65
2022/06/09 10:35:27;;;;;;;;;;;;;;;19.59;72.83;97105.78;4202884;28;5698;-64
2022/06/09 10:37:42;;;;;;;;;;;;;;;19.57;72.65;97097.16;4202726;28;5697;-64
2022/06/09 10:39:50;;;;;;;;;;;;;;;19.58;72.60;97104.16;4202767;28;5836;-64
2022/06/09 10:41:58;;;;;;;;;;;;;;;19.54;72.22;97100.31;4202603;28;5722;-64
2022/06/09 10:44:06;;;;;;;;;;;;;;;19.52;72.01;97105.09;4202493;28;5679;-64
2022/06/09 10:46:28;;;;;;;;;;;;;;;19.57;71.82;97107.09;4202833;28;5687;-64
2022/06/09 10:56:00;;;;;;;;;;;;;;;19.63;71.43;97104.25;4202519;28;5840;-64
2022/06/09 10:58:10;;;;;;;;;;;;;;;19.61;71.49;97113.59;4202273;28;6535;-64
2022/06/09 11:00:18;;;;;;;;;;;;;;;19.58;71.23;97109.53;4202877;28;5734;-64
2022/06/09 11:02:27;;;;;;;;;;;;;;;19.55;71.00;97104.66;4202379;28;5781;-64
2022/06/09 11:04:35;;;;;;;;;;;;;;;19.55;70.73;97110.00;4202348;28;5698;-64
2022/06/09 11:06:54;;;;;;;;;;;;;;;19.61;70.41;97102.88;4202354;28;5690;-64
2022/06/09 11:09:07;;;;;;;;;;;;;;;19.67;70.38;97094.66;4202117;28;5690;-64
2022/06/09 11:11:29;;;;;;;;;;;;;;;19.75;70.11;97102.31;4202421;28;5686;-64
2022/06/09 11:13:52;;;;;;;;;;;;;;;19.80;69.52;97098.88;4198604;28;6360;-64
2022/06/09 11:16:03;;;;;;;;;;;;;;;19.85;69.63;97103.53;4200753;28;5710;-65
2022/06/09 11:18:25;;;;;;;;;;;;;;;19.88;69.42;97103.03;4202067;28;5694;-65
2022/06/09 11:20:48;;;;;;;;;;;;;;;19.89;69.16;97105.47;4201064;28;6956;-65
2022/06/09 11:23:00;;;;;;;;;;;;;;;19.92;69.09;97104.16;4201485;28;6371;-65
2022/06/09 11:25:21;;;;;;;;;;;;;;;19.94;68.78;97099.38;4202239;28;5717;-65
2022/06/09 11:27:38;;;;;;;;;;;;;;;19.91;68.26;97105.22;4202050;28;5719;-65
2022/06/09 11:30:03;;;;;;;;;;;;;;;19.94;68.20;97091.34;4201853;28;5939;-65
2022/06/09 11:32:13;;;;;;;;;;;;;;;19.99;68.20;97094.91;4201964;28;5701;-65
2022/06/09 11:35:01;;;;;;;;;;;;;;;20.07;68.10;97096.38;4201874;28;5690;-65
2022/06/09 11:37:21;;;;;;;;;;;;;;;20.06;67.48;97100.09;4201893;28;6384;-65
2022/06/09 11:39:41;;;;;;;;;;;;;;;20.12;67.21;97098.28;4202000;28;5690;-65
2022/06/09 11:41:55;;;;;;;;;;;;;;;20.17;67.42;97095.69;4201645;28;5686;-65
2022/06/09 11:44:09;;;;;;;;;;;;;;;20.24;67.35;97096.31;4201605;28;5711;-64
2022/06/09 11:46:17;;;;;;;;;;;;;;;20.33;66.81;97092.16;4201812;28;6355;-65
2022/06/09 11:48:25;;;;;;;;;;;;;;;20.35;66.66;97098.91;4201378;28;5820;-65
2022/06/09 11:50:34;;;;;;;;;;;;;;;20.33;66.53;97101.03;4201550;28;5714;-66
2022/06/09 11:52:41;;;;;;;;;;;;;;;20.31;66.48;97097.78;4201552;28;5773;-64
2022/06/09 11:54:59;;;;;;;;;;;;;;;20.31;66.47;97095.09;4201542;28;5698;-65
2022/06/09 11:57:21;;;;;;;;;;;;;;;20.32;66.08;97096.72;4201461;28;5691;-65
2022/06/09 12:00:00;;;;;;;;;;;;;;;20.35;65.88;97104.28;4201238;28;5079;-64
2022/06/09 12:02:26;;;;;;;;;;;;;;;20.34;65.77;97108.00;4201626;28;5798;-65
2022/06/09 12:04:57;;;;;;;;;;;;;;;20.34;65.75;97099.97;4201470;28;5694;-65
2022/06/09 12:07:14;;;;;;;;;;;;;;;20.35;65.49;97104.28;4201709;28;5785;-64
2022/06/09 12:09:26;;;;;;;;;;;;;;;20.34;65.35;97101.84;4201485;28;6356;-65
2022/06/09 12:11:55;;;;;;;;;;;;;;;20.34;65.21;97107.22;4201306;28;5690;-65
2022/06/09 12:14:10;;;;;;;;;;;;;;;20.35;65.12;97098.91;4193017;28;7318;-65
2022/06/09 12:16:26;;;;;;;;;;;;;;;20.34;64.80;97099.97;4188182;28;5671;-64
2022/06/09 12:18:38;;;;;;;;;;;;;;;20.38;64.66;97094.09;4184481;28;5678;-64
2022/06/09 12:20:58;;;;;;;;;;;;;;;20.38;64.59;97094.09;4184182;28;5690;-65
2022/06/09 12:23:04;;;;;;;;;;;;;;;20.41;64.36;97097.09;4200296;28;5675;-65
2022/06/09 12:25:34;;;;;;;;;;;;;;;20.46;64.65;97104.44;4199796;28;5790;-65
2022/06/09 12:27:44;;;;;;;;;;;;;;;20.46;64.58;97105.25;4201247;28;5777;-65
2022/06/09 12:30:19;;;;;;;;;;;;;;;20.36;63.98;97115.81;4200951;28;5766;-65
2022/06/09 12:32:40;;;;;;;;;;;;;;;20.31;64.06;97113.88;4201362;28;5762;-64
2022/06/09 12:34:46;;;;;;;;;;;;;;;20.32;63.89;97120.06;4201230;28;5070;-65
2022/06/09 12:36:53;;;;;;;;;;;;;;;20.29;63.60;97120.56;4201120;28;5686;-64
2022/06/09 12:38:58;;;;;;;;;;;;;;;20.29;63.68;97126.75;4201044;28;5071;-64
2022/06/09 12:41:11;;;;;;;;;;;;;;;20.27;63.68;97112.78;4200688;28;5690;-64
2022/06/09 12:43:24;;;;;;;;;;;;;;;20.28;63.46;97119.75;4200570;28;5719;-65
2022/06/09 12:45:30;;;;;;;;;;;;;;;20.28;63.22;97114.38;4201011;28;5754;-65
2022/06/09 12:47:35;;;;;;;;;;;;;;;20.28;63.03;97106.34;4200729;28;5698;-66
2022/06/09 12:49:42;;;;;;;;;;;;;;;20.29;63.13;97115.19;4200897;28;5781;-65
2022/06/09 12:51:45;;;;;;;;;;;;;;;20.29;62.89;97113.34;4200706;28;5686;-65
2022/06/09 12:53:59;;;;;;;;;;;;;;;20.33;62.80;97109.06;4200904;28;5686;-64
2022/06/09 12:56:09;;;;;;;;;;;;;;;20.37;62.38;97104.00;4200692;28;5690;-64
2022/06/09 12:58:19;;;;;;;;;;;;;;;20.41;62.11;97107.03;4200740;28;5694;-65
2022/06/09 13:00:27;;;;;;;;;;;;;;;20.41;62.05;97107.03;4200698;28;5709;-65
2022/06/09 13:02:32;;;;;;;;;;;;;;;20.40;62.06;97106.22;4200619;28;5690;-65
2022/06/09 13:04:44;;;;;;;;;;;;;;;20.43;62.11;97107.63;4200677;28;5690;-64
2022/06/09 13:06:48;;;;;;;;;;;;;;;20.43;61.92;97104.94;4201298;28;5789;-64
2022/06/09 13:08:54;;;;;;;;;;;;;;;20.42;61.82;97111.34;4200630;28;5687;-65
2022/06/09 13:11:02;;;;;;;;;;;;;;;20.41;61.57;97107.03;4200673;28;5698;-64
2022/06/09 13:13:13;;;;;;;;;;;;;;;20.39;61.64;97106.47;4195390;28;5702;-65
2022/06/09 13:15:34;;;;;;;;;;;;;;;20.46;61.47;97123.25;4192590;28;5723;-65
2022/06/09 13:17:40;;;;;;;;;;;;;;;20.47;60.95;97116.81;4189398;28;5705;-65
2022/06/09 13:19:51;;;;;;;;;;;;;;;20.48;61.09;97121.09;4199219;28;5667;-65
2022/06/09 13:21:55;;;;;;;;;;;;;;;20.52;60.74;97120.38;4200447;28;6049;-64
2022/06/09 13:24:00;;;;;;;;;;;;;;;20.59;60.95;97125.56;4200499;28;7695;-64
2022/06/09 13:26:05;;;;;;;;;;;;;;;20.60;60.88;97132.56;4200426;28;7706;-65
2022/06/09 13:28:24;;;;;;;;;;;;;;;20.58;60.70;97135.50;4198850;28;5791;-65
2022/06/09 13:30:41;;;;;;;;;;;;;;;20.63;60.74;97140.13;4194412;28;5711;-64
2022/06/09 13:32:45;;;;;;;;;;;;;;;20.66;60.43;97142.31;4184431;28;5802;-65
2022/06/09 13:34:52;;;;;;;;;;;;;;;20.64;60.46;97147.94;4187140;28;5775;-65
2022/06/09 13:37:12;;;;;;;;;;;;;;;20.64;60.17;97139.06;4187295;28;5712;-65
2022/06/09 13:39:35;;;;;;;;;;;;;;;20.63;59.88;97142.81;4187350;28;5718;-64
2022/06/09 13:41:40;;;;;;;;;;;;;;;20.55;59.91;97151.31;4187004;28;5752;-65
2022/06/09 13:43:47;;;;;;;;;;;;;;;20.54;59.67;97165.78;4186797;28;5736;-65
2022/06/09 13:45:54;;;;;;;;;;;;;;;20.55;59.85;97172.78;4187113;28;5802;-65
2022/06/09 13:48:17;;;;;;;;;;;;;;;20.57;59.89;97176.03;4196237;28;5087;-64
2022/06/09 13:50:22;;;;;;;;;;;;;;;20.44;59.56;97182.56;4202808;28;5734;-64
2022/06/09 13:52:29;;;;;;;;;;;;;;;20.08;58.78;97196.47;4202196;28;5742;-66
2022/06/09 13:54:40;;;;;;;;;;;;;;;19.38;60.11;97200.31;4202264;28;5722;-65
2022/06/09 13:56:43;;;;;;;;;;;;;;;19.19;61.39;97208.50;4203411;28;5698;-65
2022/06/09 13:58:46;;;;;;;;;;;;;;;19.17;62.00;97210.63;4203288;28;5694;-63
2022/06/09 14:00:52;;;;;;;;;;;;;;;19.10;62.59;97209.94;4203595;28;5753;-63
2022/06/09 14:03:04;;;;;;;;;;;;;;;19.04;63.24;97208.22;4203584;28;5687;-63
2022/06/09 14:05:12;;;;;;;;;;;;;;;18.98;63.70;97217.19;4203468;28;5745;-64
2022/06/09 14:07:19;;;;;;;;;;;;;;;18.96;64.57;97218.47;4203524;28;5791;-63
2022/06/09 14:09:23;;;;;;;;;;;;;;;18.93;64.93;97214.41;4203415;28;5698;-63
2022/06/09 14:11:28;;;;;;;;;;;;;;;18.94;65.37;97209.88;4202996;28;5690;-63
2022/06/09 14:13:32;;;;;;;;;;;;;;;18.95;65.94;97206.13;4200025;28;5698;-63
2022/06/09 14:15:35;;;;;;;;;;;;;;;18.95;66.23;97211.50;4202740;28;5687;-63
2022/06/09 14:17:39;;;;;;;;;;;;;;;18.92;66.90;97204.75;4199530;28;6630;-63
2022/06/09 14:19:42;;;;;;;;;;;;;;;18.93;67.15;97194.84;4211372;28;5713;-64
2022/06/09 14:21:45;;;;;;;;;;;;;;;18.89;67.44;97197.16;4215727;28;5706;-63
2022/06/09 14:23:50;;;;;;;;;;;;;;;18.90;68.23;97194.25;4202915;28;5903;-66
2022/06/09 14:25:58;;;;;;;;;;;;;;;18.97;68.60;97191.44;4201585;28;5746;-65
2022/06/09 14:28:01;;;;;;;;;;;;;;;19.04;69.06;97191.31;4195393;28;5895;-64
2022/06/09 14:30:04;;;;;;;;;;;;;;;19.07;69.07;97193.53;4198986;28;5832;-64
2022/06/09 14:32:15;;;;;;;;;;;;;;;19.10;69.57;97182.31;4191388;28;6409;-63
2022/06/09 14:34:18;;;;;;;;;;;;;;;19.09;69.72;97189.53;4186492;28;5711;-63
2022/06/09 14:36:25;;;;;;;;;;;;;;;19.05;70.03;97185.72;4186341;28;5821;-65
2022/06/09 14:38:29;;;;;;;;;;;;;;;19.09;70.81;97189.53;4196885;28;5710;-63
2022/06/09 14:40:43;;;;;;;;;;;;;;;19.14;71.21;97195.03;4184515;28;6045;-65
2022/06/09 14:42:46;;;;;;;;;;;;;;;19.20;71.55;97193.25;4185608;28;5716;-63
2022/06/09 14:44:49;;;;;;;;;;;;;;;19.14;71.57;97192.34;4185111;28;7213;-63
2022/06/09 14:46:53;;;;;;;;;;;;;;;19.09;71.83;97194.91;4190017;28;6372;-65
2022/06/09 14:48:57;;;;;;;;;;;;;;;19.06;72.18;97187.34;4196051;28;5683;-64
2022/06/09 14:51:00;;;;;;;;;;;;;;;19.04;72.75;97189.47;4199313;28;5989;-64
2022/06/09 14:53:03;;;;;;;;;;;;;;;19.07;72.87;97188.97;4204085;28;5793;-64
2022/06/09 14:55:09;;;;;;;;;;;;;;;19.05;72.95;97190.28;4205477;28;5869;-64
2022/06/09 14:57:15;;;;;;;;;;;;;;;18.99;73.05;97181.31;4198632;28;5196;-64
2022/06/09 14:59:19;;;;;;;;;;;;;;;18.97;73.32;97186.09;4199288;28;5801;-64
2022/06/09 15:01:22;;;;;;;;;;;;;;;18.98;73.51;97190.41;4196900;28;5925;-64
2022/06/09 15:03:26;;;;;;;;;;;;;;;18.91;73.63;97189.69;4195918;28;7456;-64
2022/06/09 15:05:35;;;;;;;;;;;;;;;18.93;74.17;97198.34;4203137;28;5800;-64
2022/06/09 15:07:40;;;;;;;;;;;;;;;18.97;74.39;97199.50;4193495;28;5845;-64
2022/06/09 15:09:45;;;;;;;;;;;;;;;19.03;74.44;97198.56;4197597;28;5870;-65
2022/06/09 15:11:48;;;;;;;;;;;;;;;19.07;74.39;97206.94;4199789;28;5786;-64
2022/06/09 15:13:53;;;;;;;;;;;;;;;19.09;74.47;97208.31;4198181;28;5797;-64
2022/06/09 15:16:08;;;;;;;;;;;;;;;19.11;74.75;97213.44;4198876;28;5866;-64
2022/06/09 15:18:32;;;;;;;;;;;;;;;19.06;74.84;97208.78;4198825;28;5789;-65
2022/06/09 15:20:38;;;;;;;;;;;;;;;19.11;74.74;97216.91;4199394;28;5806;-64
2022/06/09 15:22:41;;;;;;;;;;;;;;;19.15;74.91;97211.91;4198866;28;6503;-64
2022/06/09 15:24:45;;;;;;;;;;;;;;;19.16;75.11;97209.00;4199230;28;5695;-64
2022/06/09 15:26:48;;;;;;;;;;;;;;;19.17;74.77;97209.81;4199070;28;5809;-64
2022/06/09 15:28:52;;;;;;;;;;;;;;;19.17;75.35;97205.25;4198745;28;5789;-65
2022/06/09 15:30:57;;;;;;;;;;;;;;;19.20;75.37;97209.31;4198794;28;5785;-64
2022/06/09 15:33:02;;;;;;;;;;;;;;;19.18;75.22;97204.22;4198956;28;5863;-64
2022/06/09 15:35:05;;;;;;;;;;;;;;;19.24;75.25;97206.97;4197527;28;5730;-64
2022/06/09 15:37:09;;;;;;;;;;;;;;;19.27;75.19;97209.22;4199004;28;5912;-64
2022/06/09 15:39:12;;;;;;;;;;;;;;;19.27;75.43;97209.22;4197944;28;5782;-65
2022/06/09 15:41:15;;;;;;;;;;;;;;;19.29;75.57;97209.78;4187499;28;5111;-64
2022/06/09 15:43:18;;;;;;;;;;;;;;;19.33;75.63;97213.59;4189998;28;5888;-64
2022/06/09 15:45:23;;;;;;;;;;;;;;;19.37;75.84;97201.38;4198935;28;5168;-65
2022/06/09 15:47:26;;;;;;;;;;;;;;;19.41;75.73;97203.31;4199024;28;5894;-64
2022/06/09 15:49:29;;;;;;;;;;;;;;;19.44;75.63;97202.03;4198783;28;7707;-65
2022/06/09 15:51:33;;;;;;;;;;;;;;;19.46;75.53;97197.22;4199126;28;5809;-65
2022/06/09 15:53:36;;;;;;;;;;;;;;;19.46;75.83;97208.75;4197516;28;6567;-64
2022/06/09 15:55:41;;;;;;;;;;;;;;;19.50;75.60;97203.75;4197467;28;5789;-64
2022/06/09 15:57:44;;;;;;;;;;;;;;;19.54;75.91;97212.94;4189908;28;6539;-66
2022/06/09 15:59:46;;;;;;;;;;;;;;;19.57;75.38;97209.81;4198471;28;5841;-65
2022/06/09 16:01:51;;;;;;;;;;;;;;;19.62;75.59;97201.88;4198550;28;6600;-66
2022/06/09 16:03:54;;;;;;;;;;;;;;;19.69;75.42;97205.19;4198813;28;6507;-66
2022/06/09 16:05:57;;;;;;;;;;;;;;;19.74;75.39;97205.31;4198443;28;5921;-65
2022/06/09 16:08:01;;;;;;;;;;;;;;;19.79;75.46;97207.25;4197045;28;5802;-65
2022/06/09 16:10:05;;;;;;;;;;;;;;;19.81;75.57;97204.31;4198526;28;5876;-65
2022/06/09 16:12:09;;;;;;;;;;;;;;;19.83;74.88;97213.78;4198229;28;5789;-64
2022/06/09 16:14:12;;;;;;;;;;;;;;;19.86;74.97;97224.00;4195634;28;5090;-65
2022/06/09 16:16:15;;;;;;;;;;;;;;;19.93;75.16;97213.97;4197913;28;5810;-65
2022/06/09 16:18:22;;;;;;;;;;;;;;;19.96;74.61;97218.00;4198033;28;5796;-65
2022/06/09 16:20:28;;;;;;;;;;;;;;;19.94;74.82;97220.13;4198589;28;5812;-65
2022/06/09 16:22:31;;;;;;;;;;;;;;;19.93;74.59;97215.78;4196374;28;5754;-64
2022/06/09 16:24:34;;;;;;;;;;;;;;;19.96;74.32;97224.19;4198284;28;5790;-65
2022/06/09 16:26:40;;;;;;;;;;;;;;;19.97;74.16;97220.44;4197803;28;5853;-65
2022/06/09 16:28:43;;;;;;;;;;;;;;;20.00;74.19;97229.88;4197579;28;5801;-65
2022/06/09 16:30:47;;;;;;;;;;;;;;;20.06;74.20;97234.28;4198146;28;5821;-65
2022/06/09 16:32:50;;;;;;;;;;;;;;;20.06;73.63;97235.09;4198108;28;5908;-65
2022/06/09 16:34:54;;;;;;;;;;;;;;;20.08;73.51;97240.22;4197900;28;5791;-64
2022/06/09 16:36:57;;;;;;;;;;;;;;;20.07;73.34;97227.88;4197890;28;5786;-64
2022/06/09 16:39:01;;;;;;;;;;;;;;;20.08;73.38;97231.38;4198170;28;5802;-65
2022/06/09 16:41:04;;;;;;;;;;;;;;;20.10;73.07;97229.25;4198030;28;5826;-65
2022/06/09 16:43:09;;;;;;;;;;;;;;;20.12;72.96;97227.94;4197437;28;6908;-66
2022/06/09 16:45:13;;;;;;;;;;;;;;;20.12;72.79;97238.69;4197896;28;5805;-64
2022/06/09 16:47:17;;;;;;;;;;;;;;;20.13;72.61;97234.94;4197985;28;5906;-64
2022/06/09 16:49:20;;;;;;;;;;;;;;;20.12;72.28;97238.69;4197937;28;5814;-64
2022/06/09 16:51:24;;;;;;;;;;;;;;;20.12;72.26;97236.00;4198091;28;5801;-65
2022/06/09 16:53:28;;;;;;;;;;;;;;;20.12;71.72;97244.03;4198132;28;5797;-65
2022/06/09 16:55:31;;;;;;;;;;;;;;;20.13;71.58;97242.97;4197526;28;5798;-65
2022/06/09 16:57:35;;;;;;;;;;;;;;;20.14;71.04;97246.47;4197834;28;5797;-64
2022/06/09 16:59:38;;;;;;;;;;;;;;;20.11;70.95;97247.78;4195507;28;5718;-65
2022/06/09 17:01:41;;;;;;;;;;;;;;;20.14;70.84;97244.59;4192031;28;5811;-64